createdAt,value
2019-05-23T00:00:30.842Z,11.67
2019-05-23T00:03:01.161Z,10.37
2019-05-23T00:05:34.700Z,10.37
2019-05-23T00:08:04.518Z,11.13
2019-05-23T00:10:40.938Z,10.40
2019-05-23T00:13:17.161Z,11.13
2019-05-23T00:15:47.689Z,11.33
2019-05-23T00:18:21.097Z,10.77
2019-05-23T00:20:49.672Z,10.80
2019-05-23T00:23:19.556Z,10.77
2019-05-23T00:25:49.681Z,10.10
2019-05-23T00:28:18.173Z,10.87
2019-05-23T00:30:48.529Z,11.00
2019-05-23T00:33:18.650Z,10.83
2019-05-23T00:35:48.170Z,10.33
2019-05-23T00:38:16.927Z,12.57
2019-05-23T00:40:46.696Z,11.43
2019-05-23T00:43:15.708Z,12.47
2019-05-23T00:45:44.393Z,11.40
2019-05-23T00:48:34.095Z,11.80
2019-05-23T00:51:05.210Z,11.93
2019-05-23T00:53:35.079Z,10.70
2019-05-23T00:56:04.408Z,11.57
2019-05-23T00:58:33.547Z,12.37
2019-05-23T01:01:03.234Z,11.60
2019-05-23T01:03:32.633Z,11.13
2019-05-23T01:06:01.922Z,11.23
2019-05-23T01:08:31.714Z,11.67
2019-05-23T01:11:00.969Z,11.40
2019-05-23T01:13:30.189Z,10.80
2019-05-23T01:15:58.884Z,10.37
2019-05-23T01:18:27.374Z,10.53
2019-05-23T01:21:00.199Z,9.97
2019-05-23T01:23:37.704Z,10.93
2019-05-23T01:26:07.013Z,11.00
2019-05-23T01:28:36.260Z,10.53
2019-05-23T01:31:08.203Z,10.83
2019-05-23T01:33:37.878Z,11.30
2019-05-23T01:36:07.680Z,11.80
2019-05-23T01:38:38.901Z,10.80
2019-05-23T01:41:07.839Z,11.17
2019-05-23T01:43:36.298Z,10.57
2019-05-23T01:46:05.497Z,10.87
2019-05-23T01:48:34.734Z,9.90
2019-05-23T01:51:03.478Z,10.40
2019-05-23T01:53:32.882Z,10.83
2019-05-23T01:56:01.690Z,11.27
2019-05-23T01:58:30.178Z,11.20
2019-05-23T02:00:59.967Z,11.20
2019-05-23T02:03:28.791Z,11.33
2019-05-23T02:05:57.567Z,12.40
2019-05-23T02:08:26.405Z,10.87
2019-05-23T02:10:55.054Z,11.70
2019-05-23T02:13:23.498Z,10.37
2019-05-23T02:15:52.620Z,11.17
2019-05-23T02:18:21.606Z,11.13
2019-05-23T02:20:50.918Z,11.03
2019-05-23T02:23:19.927Z,10.03
2019-05-23T02:25:48.745Z,9.70
2019-05-23T02:28:17.574Z,9.37
2019-05-23T02:30:47.673Z,9.03
2019-05-23T02:33:16.571Z,9.40
2019-05-23T02:35:45.012Z,8.33
2019-05-23T02:38:18.591Z,8.57
2019-05-23T02:40:49.132Z,8.27
2019-05-23T02:43:23.139Z,8.80
2019-05-23T02:46:04.844Z,9.50
2019-05-23T02:48:46.078Z,8.87
2019-05-23T02:51:26.256Z,8.50
2019-05-23T02:53:56.006Z,9.67
2019-05-23T02:56:25.376Z,9.77
2019-05-23T02:59:22.310Z,10.17
2019-05-23T03:02:15.177Z,9.53
2019-05-23T03:04:45.097Z,9.20
2019-05-23T03:07:14.699Z,10.07
2019-05-23T03:09:43.629Z,10.93
2019-05-23T03:12:13.053Z,10.20
2019-05-23T03:14:43.115Z,9.77
2019-05-23T03:17:15.173Z,9.73
2019-05-23T03:19:58.088Z,10.57
2019-05-23T03:22:37.214Z,9.93
2019-05-23T03:25:30.721Z,9.47
2019-05-23T03:28:00.998Z,9.67
2019-05-23T03:30:31.703Z,10.43
2019-05-23T03:33:01.851Z,10.87
2019-05-23T03:35:32.266Z,10.57
2019-05-23T03:38:01.517Z,9.73
2019-05-23T03:40:32.251Z,9.50
2019-05-23T03:43:01.298Z,10.13
2019-05-23T03:45:31.505Z,11.00
2019-05-23T03:48:01.928Z,10.37
2019-05-23T03:50:32.709Z,10.13
2019-05-23T03:53:01.916Z,10.93
2019-05-23T03:55:30.691Z,11.30
2019-05-23T03:58:00.919Z,10.23
2019-05-23T04:00:33.042Z,10.70
2019-05-23T04:03:02.633Z,10.67
2019-05-23T04:05:31.345Z,10.00
2019-05-23T04:08:00.258Z,11.13
2019-05-23T04:10:28.761Z,11.40
2019-05-23T04:12:57.730Z,14.80
2019-05-23T04:15:28.305Z,11.07
2019-05-23T04:17:57.128Z,10.80
2019-05-23T04:20:25.800Z,9.50
2019-05-23T04:22:54.735Z,10.17
2019-05-23T04:25:23.559Z,8.73
2019-05-23T04:27:53.253Z,7.77
2019-05-23T04:30:22.188Z,7.13
2019-05-23T04:32:51.104Z,8.20
2019-05-23T04:35:19.971Z,8.40
2019-05-23T04:37:49.519Z,9.13
2019-05-23T04:40:18.638Z,8.97
2019-05-23T04:42:47.207Z,7.60
2019-05-23T04:45:16.404Z,7.93
2019-05-23T04:47:45.534Z,8.13
2019-05-23T04:50:16.322Z,8.07
2019-05-23T04:52:45.161Z,8.10
2019-05-23T04:55:15.323Z,7.67
2019-05-23T04:57:44.198Z,7.30
2019-05-23T05:00:14.973Z,7.50
2019-05-23T05:02:45.737Z,7.40
2019-05-23T05:05:15.987Z,6.33
2019-05-23T05:07:44.811Z,6.63
2019-05-23T05:10:17.125Z,6.27
2019-05-23T05:12:46.401Z,6.30
2019-05-23T05:15:15.303Z,7.10
2019-05-23T05:17:44.585Z,6.23
2019-05-23T05:20:14.154Z,5.70
2019-05-23T05:22:42.802Z,5.73
2019-05-23T05:25:11.897Z,6.77
2019-05-23T05:27:40.713Z,6.97
2019-05-23T05:30:10.352Z,6.23
2019-05-23T05:32:44.662Z,7.40
2019-05-23T05:35:12.080Z,7.37
2019-05-23T05:37:40.658Z,7.07
2019-05-23T05:40:10.486Z,7.77
2019-05-23T05:42:41.585Z,8.23
2019-05-23T05:45:10.746Z,7.97
2019-05-23T05:47:40.440Z,8.00
2019-05-23T05:50:11.229Z,8.30
2019-05-23T05:52:40.513Z,7.77
2019-05-23T05:55:10.032Z,8.67
2019-05-23T05:57:38.689Z,9.27
2019-05-23T06:00:13.034Z,7.87
2019-05-23T06:02:41.419Z,8.33
2019-05-23T06:05:12.024Z,9.33
2019-05-23T06:07:42.207Z,8.60
2019-05-23T06:10:12.995Z,8.73
2019-05-23T06:12:41.450Z,8.33
2019-05-23T06:15:10.514Z,9.67
2019-05-23T06:17:39.781Z,9.37
2019-05-23T06:20:09.947Z,10.07
2019-05-23T06:22:40.870Z,9.07
2019-05-23T06:25:11.424Z,9.93
2019-05-23T06:27:44.315Z,9.70
2019-05-23T06:30:15.187Z,10.13
2019-05-23T06:32:43.795Z,10.53
2019-05-23T06:35:13.735Z,11.00
2019-05-23T06:37:42.955Z,10.27
2019-05-23T06:40:12.216Z,11.03
2019-05-23T06:42:41.232Z,10.30
2019-05-23T06:45:11.149Z,11.30
2019-05-23T06:47:40.386Z,10.23
2019-05-23T06:50:16.074Z,11.23
2019-05-23T06:52:44.912Z,10.33
2019-05-23T06:55:13.876Z,11.27
2019-05-23T06:57:42.650Z,11.17
2019-05-23T07:00:13.346Z,10.87
2019-05-23T07:02:42.919Z,10.67
2019-05-23T07:05:11.984Z,10.77
2019-05-23T07:07:41.942Z,10.50
2019-05-23T07:10:12.257Z,9.93
2019-05-23T07:12:40.705Z,10.17
2019-05-23T07:15:10.309Z,10.53
2019-05-23T07:17:39.811Z,10.33
2019-05-23T07:20:11.938Z,11.53
2019-05-23T07:22:40.795Z,10.70
2019-05-23T07:25:09.744Z,11.33
2019-05-23T07:27:38.675Z,10.83
2019-05-23T07:30:13.046Z,11.40
2019-05-23T07:32:42.049Z,11.63
2019-05-23T07:35:10.561Z,11.40
2019-05-23T07:37:39.368Z,11.40
2019-05-23T07:40:08.350Z,10.87
2019-05-23T07:42:36.794Z,10.90
2019-05-23T07:45:08.834Z,11.33
2019-05-23T07:47:40.066Z,10.57
2019-05-23T07:50:08.368Z,11.80
2019-05-23T07:52:37.181Z,11.67
2019-05-23T07:55:11.086Z,11.63
2019-05-23T07:57:39.996Z,10.87
2019-05-23T08:00:13.914Z,11.27
2019-05-23T08:02:43.434Z,11.57
2019-05-23T08:05:13.732Z,12.33
2019-05-23T08:07:42.919Z,12.20
2019-05-23T08:10:12.605Z,11.83
2019-05-23T08:12:41.533Z,11.30
2019-05-23T08:15:11.434Z,11.23
2019-05-23T08:17:40.339Z,11.80
2019-05-23T08:20:11.483Z,11.80
2019-05-23T08:22:40.323Z,12.17
2019-05-23T08:25:09.612Z,10.83
2019-05-23T08:27:38.313Z,11.00
2019-05-23T08:30:09.140Z,12.00
2019-05-23T08:32:38.881Z,10.90
2019-05-23T08:35:08.830Z,12.03
2019-05-23T08:37:38.534Z,11.63
2019-05-23T08:40:07.952Z,10.23
2019-05-23T08:42:37.691Z,11.03
2019-05-23T08:45:10.171Z,10.63
2019-05-23T08:47:38.919Z,10.10
2019-05-23T08:50:09.403Z,11.00
2019-05-23T08:52:38.079Z,10.67
2019-05-23T08:55:23.975Z,10.77
2019-05-23T08:57:58.007Z,10.80
2019-05-23T09:00:28.722Z,9.63
2019-05-23T09:02:59.030Z,10.25
2019-05-23T09:05:29.686Z,10.32
2019-05-23T09:07:58.190Z,8.78
2019-05-23T09:10:27.322Z,8.55
2019-05-23T09:12:56.511Z,7.70
2019-05-23T09:15:25.022Z,8.05
2019-05-23T09:17:54.360Z,8.45
2019-05-23T09:20:23.337Z,8.95
2019-05-23T09:22:51.944Z,7.92
2019-05-23T09:25:20.518Z,7.47
2019-05-23T09:27:50.679Z,5.20
2019-05-23T09:30:20.542Z,4.50
2019-05-23T09:32:49.762Z,5.20
2019-05-23T09:35:21.331Z,5.62
2019-05-23T09:37:49.581Z,4.47
2019-05-23T09:40:18.598Z,5.42
2019-05-23T09:42:47.041Z,5.75
2019-05-23T09:45:17.247Z,5.75
2019-05-23T09:47:50.475Z,5.58
2019-05-23T09:50:17.953Z,5.30
2019-05-23T09:52:47.037Z,6.00
2019-05-23T09:55:16.210Z,5.97
2019-05-23T09:57:44.716Z,4.85
2019-05-23T10:00:15.336Z,4.92
2019-05-23T10:02:44.188Z,4.90
2019-05-23T10:05:13.460Z,4.95
2019-05-23T10:07:42.406Z,5.90
2019-05-23T10:10:12.016Z,5.50
2019-05-23T10:12:41.045Z,6.22
2019-05-23T10:15:18.155Z,5.80
2019-05-23T10:17:46.874Z,5.62
2019-05-23T10:20:16.219Z,4.95
2019-05-23T10:22:45.047Z,5.22
2019-05-23T10:25:14.066Z,5.00
2019-05-23T10:27:42.854Z,6.28
2019-05-23T10:30:13.718Z,5.67
2019-05-23T10:32:42.148Z,5.85
2019-05-23T10:35:11.833Z,5.90
2019-05-23T10:37:40.618Z,6.67
2019-05-23T10:40:09.785Z,6.20
2019-05-23T10:42:38.367Z,6.85
2019-05-23T10:45:09.422Z,6.62
2019-05-23T10:47:37.965Z,6.35
2019-05-23T10:50:10.186Z,5.78
2019-05-23T10:52:39.476Z,6.42
2019-05-23T10:55:08.473Z,5.45
2019-05-23T10:57:37.019Z,4.17
2019-05-23T11:00:07.711Z,4.22
2019-05-23T11:02:36.993Z,4.58
2019-05-23T11:05:13.665Z,5.22
2019-05-23T11:07:41.962Z,4.50
2019-05-23T11:10:11.251Z,3.70
2019-05-23T11:12:40.650Z,3.95
2019-05-23T11:15:09.559Z,3.52
2019-05-23T11:17:38.818Z,4.25
2019-05-23T11:20:08.179Z,4.08
2019-05-23T11:22:37.076Z,3.52
2019-05-23T11:25:08.091Z,3.92
2019-05-23T11:27:37.324Z,3.92
2019-05-23T11:30:09.959Z,3.62
2019-05-23T11:32:38.838Z,3.62
2019-05-23T11:35:07.694Z,3.70
2019-05-23T11:37:36.220Z,3.95
2019-05-23T11:40:07.503Z,4.47
2019-05-23T11:42:36.555Z,4.20
2019-05-23T11:45:07.664Z,4.10
2019-05-23T11:47:36.772Z,4.50
2019-05-23T11:50:06.945Z,3.65
2019-05-23T11:52:35.869Z,4.08
2019-05-23T11:55:06.382Z,4.35
2019-05-23T11:57:37.701Z,4.20
2019-05-23T12:00:09.323Z,4.53
2019-05-23T12:02:42.694Z,3.62
2019-05-23T12:05:14.074Z,3.58
2019-05-23T12:07:42.739Z,3.83
2019-05-23T12:10:11.614Z,4.20
2019-05-23T12:12:40.108Z,3.85
2019-05-23T12:15:13.246Z,3.45
2019-05-23T12:17:42.910Z,3.80
2019-05-23T12:20:12.203Z,3.50
2019-05-23T12:22:41.161Z,3.77
2019-05-23T12:25:22.107Z,3.40
2019-05-23T12:27:42.475Z,3.87
2019-05-23T12:30:14.352Z,3.90
2019-05-23T12:32:42.788Z,3.55
2019-05-23T12:35:12.425Z,3.80
2019-05-23T12:37:41.430Z,2.92
2019-05-23T12:40:12.239Z,2.85
2019-05-23T12:42:40.673Z,3.50
2019-05-23T12:45:10.908Z,3.62
2019-05-23T12:47:43.716Z,3.60
2019-05-23T12:50:29.546Z,3.85
2019-05-23T12:52:58.351Z,4.00
2019-05-23T12:55:26.954Z,3.70
2019-05-23T12:57:55.786Z,3.70
2019-05-23T13:00:41.357Z,3.90
2019-05-23T13:03:12.581Z,3.50
2019-05-23T13:05:42.202Z,3.30
2019-05-23T13:08:10.947Z,3.80
2019-05-23T13:10:39.735Z,2.98
2019-05-23T13:13:08.842Z,3.90
2019-05-23T13:15:37.366Z,3.75
2019-05-23T13:18:06.360Z,3.08
2019-05-23T13:20:35.181Z,2.70
2019-05-23T13:23:03.974Z,2.83
2019-05-23T13:25:32.866Z,3.10
2019-05-23T13:28:01.521Z,2.58
2019-05-23T13:30:30.456Z,2.95
2019-05-23T13:33:03.356Z,3.20
2019-05-23T13:35:30.185Z,3.10
2019-05-23T13:37:58.764Z,3.10
2019-05-23T13:40:27.459Z,3.40
2019-05-23T13:42:56.036Z,3.10
2019-05-23T13:45:24.842Z,2.80
2019-05-23T13:47:53.825Z,2.77
2019-05-23T13:50:22.627Z,2.90
2019-05-23T13:52:51.846Z,2.80
2019-05-23T13:55:20.621Z,3.10
2019-05-23T13:57:49.069Z,3.05
2019-05-23T14:00:18.109Z,2.60
2019-05-23T14:02:47.313Z,2.45
2019-05-23T14:05:19.184Z,2.22
2019-05-23T14:07:47.502Z,2.55
2019-05-23T14:10:16.763Z,2.50
2019-05-23T14:12:46.042Z,2.37
2019-05-23T14:15:16.462Z,2.75
2019-05-23T14:17:45.954Z,2.50
2019-05-23T14:20:15.633Z,2.37
2019-05-23T14:22:46.859Z,3.02
2019-05-23T14:25:15.644Z,2.45
2019-05-23T14:27:45.862Z,2.33
2019-05-23T14:30:33.851Z,2.50
2019-05-23T14:33:10.440Z,2.22
2019-05-23T14:35:41.078Z,2.70
2019-05-23T14:38:29.027Z,2.20
2019-05-23T14:40:43.299Z,2.10
2019-05-23T14:43:16.142Z,2.40
2019-05-23T14:48:54.364Z,2.37
2019-05-23T14:51:31.135Z,2.02
2019-05-23T14:54:18.134Z,2.50
2019-05-23T14:56:47.150Z,2.30
2019-05-23T14:59:15.742Z,2.80
2019-05-23T15:01:45.250Z,2.47
2019-05-23T15:04:14.501Z,2.17
2019-05-23T15:06:43.321Z,2.17
2019-05-23T15:09:11.741Z,2.30
2019-05-23T15:11:40.812Z,2.85
2019-05-23T15:14:09.336Z,2.10
2019-05-23T15:16:38.033Z,2.62
2019-05-23T15:19:06.994Z,2.65
2019-05-23T15:21:35.706Z,2.75
2019-05-23T15:24:04.782Z,2.55
2019-05-23T15:26:33.405Z,2.25
2019-05-23T15:29:02.321Z,2.70
2019-05-23T15:31:31.625Z,2.80
2019-05-23T15:34:00.134Z,2.50
2019-05-23T15:36:28.927Z,2.02
2019-05-23T15:39:08.762Z,2.42
2019-05-23T15:41:28.137Z,2.60
2019-05-23T15:43:56.574Z,2.27
2019-05-23T15:46:25.203Z,2.27
2019-05-23T15:48:53.779Z,2.50
2019-05-23T15:51:23.869Z,2.30
2019-05-23T15:53:56.474Z,2.00
2019-05-23T15:56:28.604Z,1.90
2019-05-23T15:59:17.228Z,2.10
2019-05-23T16:01:50.430Z,2.12
2019-05-23T16:04:22.832Z,2.12
2019-05-23T16:06:51.686Z,2.20
2019-05-23T16:09:29.518Z,2.27
2019-05-23T16:11:51.670Z,2.60
2019-05-23T16:14:20.803Z,2.58
2019-05-23T16:16:49.257Z,2.30
2019-05-23T16:19:17.771Z,2.42
2019-05-23T16:21:46.383Z,2.25
2019-05-23T16:24:14.940Z,2.05
2019-05-23T16:26:43.985Z,2.10
2019-05-23T16:29:13.787Z,2.08
2019-05-23T16:31:42.491Z,2.20
2019-05-23T16:34:11.208Z,2.20
2019-05-23T16:36:39.896Z,2.10
2019-05-23T16:39:09.703Z,2.17
2019-05-23T16:41:38.513Z,2.12
2019-05-23T16:44:07.433Z,2.40
2019-05-23T16:46:36.126Z,2.10
2019-05-23T16:49:05.460Z,2.70
2019-05-23T16:51:34.347Z,2.10
2019-05-23T16:54:02.907Z,2.10
2019-05-23T16:56:33.118Z,2.25
2019-05-23T16:59:06.795Z,2.17
2019-05-23T17:01:59.171Z,1.98
2019-05-23T17:04:25.645Z,1.90
2019-05-23T17:06:56.353Z,2.10
2019-05-23T17:09:38.570Z,1.90
2019-05-23T17:12:25.101Z,1.85
2019-05-23T17:15:01.251Z,1.90
2019-05-23T17:17:57.394Z,2.27
2019-05-23T17:20:18.997Z,2.15
2019-05-23T17:22:53.992Z,1.75
2019-05-23T17:25:40.549Z,2.20
2019-05-23T17:28:13.439Z,2.00
2019-05-23T17:30:43.859Z,2.15
2019-05-23T17:33:13.262Z,2.15
2019-05-23T17:35:42.062Z,2.35
2019-05-23T17:38:10.499Z,2.20
2019-05-23T17:40:39.458Z,2.20
2019-05-23T17:43:08.525Z,2.37
2019-05-23T17:45:37.075Z,2.20
2019-05-23T17:48:06.018Z,2.17
2019-05-23T17:50:35.259Z,2.40
2019-05-23T17:53:04.051Z,2.10
2019-05-23T17:55:33.417Z,2.15
2019-05-23T17:58:02.610Z,2.30
2019-05-23T18:00:38.717Z,2.25
2019-05-23T18:03:08.080Z,2.12
2019-05-23T18:05:36.670Z,2.40
2019-05-23T18:08:06.042Z,2.22
2019-05-23T18:10:44.536Z,2.12
2019-05-23T18:13:07.506Z,2.15
2019-05-23T18:15:36.819Z,2.27
2019-05-23T18:18:06.745Z,2.50
2019-05-23T18:20:37.096Z,2.23
2019-05-23T18:23:06.261Z,2.30
2019-05-23T18:25:35.812Z,2.10
2019-05-23T18:28:05.536Z,2.30
2019-05-23T18:30:38.751Z,2.17
2019-05-23T18:33:08.869Z,2.40
2019-05-23T18:35:39.313Z,2.50
2019-05-23T18:38:08.031Z,2.40
2019-05-23T18:40:37.003Z,2.30
2019-05-23T18:43:06.297Z,2.20
2019-05-23T18:45:36.383Z,2.40
2019-05-23T18:48:06.308Z,2.50
2019-05-23T18:50:34.935Z,2.47
2019-05-23T18:53:04.337Z,3.20
2019-05-23T18:55:32.758Z,3.03
2019-05-23T18:58:01.303Z,3.60
2019-05-23T19:00:53.037Z,3.20
2019-05-23T19:03:23.246Z,3.07
2019-05-23T19:05:52.027Z,3.03
2019-05-23T19:08:20.983Z,2.70
2019-05-23T19:10:49.617Z,2.63
2019-05-23T19:13:18.126Z,2.70
2019-05-23T19:15:47.689Z,2.80
2019-05-23T19:18:16.800Z,2.67
2019-05-23T19:20:45.411Z,3.00
2019-05-23T19:23:13.874Z,2.70
2019-05-23T19:25:45.073Z,3.00
2019-05-23T19:28:13.857Z,2.90
2019-05-23T19:30:42.473Z,3.10
2019-05-23T19:33:11.468Z,2.90
2019-05-23T19:35:40.573Z,3.07
2019-05-23T19:38:09.174Z,2.80
2019-05-23T19:40:38.165Z,3.07
2019-05-23T19:43:08.710Z,2.87
2019-05-23T19:45:38.055Z,2.90
2019-05-23T19:48:08.091Z,3.13
2019-05-23T19:50:37.582Z,2.90
2019-05-23T19:53:06.339Z,3.20
2019-05-23T19:55:39.981Z,3.23
2019-05-23T19:58:08.005Z,2.97
2019-05-23T20:00:37.372Z,3.13
2019-05-23T20:03:06.660Z,3.30
2019-05-23T20:05:37.359Z,3.10
2019-05-23T20:08:06.346Z,3.10
2019-05-23T20:10:36.319Z,3.50
2019-05-23T20:13:05.596Z,2.90
2019-05-23T20:15:34.496Z,3.20
2019-05-23T20:18:03.221Z,3.30
2019-05-23T20:20:33.456Z,3.17
2019-05-23T20:23:02.344Z,3.20
2019-05-23T20:25:31.501Z,3.27
2019-05-23T20:28:00.024Z,3.60
2019-05-23T20:30:44.622Z,3.70
2019-05-23T20:33:13.507Z,3.20
2019-05-23T20:35:42.230Z,3.07
2019-05-23T20:38:10.773Z,3.47
2019-05-23T20:40:43.011Z,3.30
2019-05-23T20:43:11.713Z,3.70
2019-05-23T20:45:40.935Z,3.43
2019-05-23T20:48:10.620Z,3.37
2019-05-23T20:50:39.435Z,3.40
2019-05-23T20:53:08.087Z,3.40
2019-05-23T20:55:37.149Z,3.50
2019-05-23T20:58:06.369Z,3.27
2019-05-23T21:00:36.829Z,3.30
2019-05-23T21:03:06.158Z,2.93
2019-05-23T21:05:35.324Z,3.77
2019-05-23T21:08:03.864Z,3.20
2019-05-23T21:10:44.074Z,3.60
2019-05-23T21:13:12.736Z,3.60
2019-05-23T21:15:41.308Z,3.37
2019-05-23T21:18:10.753Z,3.40
2019-05-23T21:20:39.401Z,3.57
2019-05-23T21:23:08.301Z,3.50
2019-05-23T21:25:38.500Z,3.77
2019-05-23T21:28:07.188Z,3.27
2019-05-23T21:30:36.166Z,3.40
2019-05-23T21:33:05.368Z,3.80
2019-05-23T21:35:34.251Z,3.47
2019-05-23T21:38:02.854Z,3.70
2019-05-23T21:40:42.464Z,3.17
2019-05-23T21:43:11.162Z,3.50
2019-05-23T21:45:40.024Z,3.60
2019-05-23T21:48:08.843Z,3.70
2019-05-23T21:50:37.337Z,3.47
2019-05-23T21:53:06.100Z,3.80
2019-05-23T21:55:37.815Z,3.70
2019-05-23T21:58:11.290Z,3.80
2019-05-23T22:01:02.627Z,3.93
2019-05-23T22:03:33.025Z,3.83
2019-05-23T22:06:02.389Z,3.80
2019-05-23T22:08:31.617Z,3.50
2019-05-23T22:11:00.397Z,3.63
2019-05-23T22:13:29.191Z,3.73
2019-05-23T22:16:00.774Z,3.93
2019-05-23T22:18:29.409Z,4.17
2019-05-23T22:20:57.835Z,3.70
2019-05-23T22:23:26.306Z,4.00
2019-05-23T22:25:55.158Z,4.00
2019-05-23T22:28:23.736Z,4.17
2019-05-23T22:30:52.850Z,3.77
2019-05-23T22:33:22.975Z,4.00
2019-05-23T22:35:51.409Z,3.93
2019-05-23T22:38:20.258Z,4.23
2019-05-23T22:40:48.763Z,4.40
2019-05-23T22:43:21.152Z,4.47
2019-05-23T22:45:47.762Z,4.17
2019-05-23T22:48:16.830Z,4.13
2019-05-23T22:50:45.647Z,4.10
2019-05-23T22:53:14.478Z,4.37
2019-05-23T22:55:43.061Z,4.20
2019-05-23T22:58:11.832Z,4.30
2019-05-23T23:00:42.375Z,4.57
2019-05-23T23:03:10.974Z,4.13
2019-05-23T23:05:39.421Z,4.43
2019-05-23T23:08:08.478Z,4.30
2019-05-23T23:10:37.071Z,4.50
2019-05-23T23:13:05.584Z,4.60
2019-05-23T23:15:34.414Z,5.10
2019-05-23T23:18:02.929Z,4.70
2019-05-23T23:20:31.916Z,4.90
2019-05-23T23:23:00.401Z,4.30
2019-05-23T23:25:29.151Z,4.77
2019-05-23T23:27:57.960Z,4.23
2019-05-23T23:30:28.037Z,4.90
2019-05-23T23:32:56.890Z,5.20
2019-05-23T23:35:25.698Z,4.60
2019-05-23T23:37:54.127Z,5.10
2019-05-23T23:40:22.581Z,5.30
2019-05-23T23:42:51.014Z,4.63
2019-05-23T23:45:37.795Z,5.23
2019-05-23T23:48:24.478Z,5.37
2019-05-23T23:51:11.135Z,5.37
2019-05-23T23:53:58.172Z,5.37
2019-05-23T23:56:45.723Z,5.30
2019-05-23T23:59:13.606Z,5.40
